sensor_id;sensor_type;location;lat;lon;timestamp;P1;durP1;ratioP1;P2;durP2;ratioP2
19609;SDS011;9952;47.122;-1.638;2022-10-30T00:02:55;8.80;;;2.57;;
19609;SDS011;9952;47.122;-1.638;2022-10-30T00:07:35;7.10;;;1.93;;
19609;SDS011;9952;47.122;-1.638;2022-10-30T00:12:16;7.40;;;2.27;;
19609;SDS011;9952;47.122;-1.638;2022-10-30T00:16:57;6.23;;;2.57;;
19609;SDS011;9952;47.122;-1.638;2022-10-30T00:21:38;13.10;;;2.83;;
19609;SDS011;9952;47.122;-1.638;2022-10-30T00:26:20;6.70;;;2.37;;
19609;SDS011;9952;47.122;-1.638;2022-10-30T00:31:02;8.73;;;2.33;;
19609;SDS011;9952;47.122;-1.638;2022-10-30T00:35:47;9.03;;;2.47;;
19609;SDS011;9952;47.122;-1.638;2022-10-30T00:40:28;6.43;;;2.27;;
19609;SDS011;9952;47.122;-1.638;2022-10-30T00:45:12;10.73;;;3.20;;
19609;SDS011;9952;47.122;-1.638;2022-10-30T00:50:02;5.37;;;2.30;;
19609;SDS011;9952;47.122;-1.638;2022-10-30T00:54:50;8.27;;;3.00;;
19609;SDS011;9952;47.122;-1.638;2022-10-30T00:59:33;9.87;;;3.03;;
19609;SDS011;9952;47.122;-1.638;2022-10-30T01:04:16;8.97;;;2.70;;
19609;SDS011;9952;47.122;-1.638;2022-10-30T01:08:57;12.37;;;3.07;;
19609;SDS011;9952;47.122;-1.638;2022-10-30T01:13:39;12.27;;;2.80;;
19609;SDS011;9952;47.122;-1.638;2022-10-30T01:38:11;6.00;;;2.23;;
19609;SDS011;9952;47.122;-1.638;2022-10-30T01:43:05;7.57;;;2.43;;
19609;SDS011;9952;47.122;-1.638;2022-10-30T02:03:24;8.27;;;3.20;;
19609;SDS011;9952;47.122;-1.638;2022-10-30T02:08:06;7.47;;;2.30;;
19609;SDS011;9952;47.122;-1.638;2022-10-30T02:12:47;8.50;;;2.60;;
19609;SDS011;9952;47.122;-1.638;2022-10-30T02:17:28;8.07;;;2.20;;
19609;SDS011;9952;47.122;-1.638;2022-10-30T02:22:09;7.17;;;2.40;;
19609;SDS011;9952;47.122;-1.638;2022-10-30T02:26:50;11.47;;;2.70;;
19609;SDS011;9952;47.122;-1.638;2022-10-30T02:31:31;12.07;;;2.57;;
19609;SDS011;9952;47.122;-1.638;2022-10-30T02:36:12;13.07;;;2.60;;
19609;SDS011;9952;47.122;-1.638;2022-10-30T02:40:57;8.67;;;2.80;;
19609;SDS011;9952;47.122;-1.638;2022-10-30T02:45:38;8.00;;;2.30;;
19609;SDS011;9952;47.122;-1.638;2022-10-30T02:50:18;9.03;;;2.43;;
19609;SDS011;9952;47.122;-1.638;2022-10-30T02:54:59;5.77;;;2.73;;
19609;SDS011;9952;47.122;-1.638;2022-10-30T02:59:40;7.50;;;2.67;;
19609;SDS011;9952;47.122;-1.638;2022-10-30T03:04:21;3.93;;;2.13;;
19609;SDS011;9952;47.122;-1.638;2022-10-30T03:09:02;7.70;;;2.70;;
19609;SDS011;9952;47.122;-1.638;2022-10-30T03:13:43;9.50;;;2.83;;
19609;SDS011;9952;47.122;-1.638;2022-10-30T03:18:25;9.00;;;2.40;;
19609;SDS011;9952;47.122;-1.638;2022-10-30T03:23:06;10.43;;;2.90;;
19609;SDS011;9952;47.122;-1.638;2022-10-30T03:27:47;7.23;;;3.00;;
19609;SDS011;9952;47.122;-1.638;2022-10-30T03:32:29;13.00;;;2.90;;
19609;SDS011;9952;47.122;-1.638;2022-10-30T03:37:10;5.10;;;1.80;;
19609;SDS011;9952;47.122;-1.638;2022-10-30T03:41:52;9.57;;;2.20;;
19609;SDS011;9952;47.122;-1.638;2022-10-30T03:46:32;9.97;;;2.33;;
19609;SDS011;9952;47.122;-1.638;2022-10-30T03:51:15;6.27;;;1.80;;
19609;SDS011;9952;47.122;-1.638;2022-10-30T03:55:57;6.13;;;2.10;;
19609;SDS011;9952;47.122;-1.638;2022-10-30T04:00:39;16.43;;;2.93;;
19609;SDS011;9952;47.122;-1.638;2022-10-30T04:05:20;6.80;;;1.43;;
19609;SDS011;9952;47.122;-1.638;2022-10-30T04:10:02;6.93;;;1.43;;
19609;SDS011;9952;47.122;-1.638;2022-10-30T04:14:43;10.10;;;1.90;;
19609;SDS011;9952;47.122;-1.638;2022-10-30T04:19:24;10.10;;;1.30;;
19609;SDS011;9952;47.122;-1.638;2022-10-30T04:24:04;7.47;;;1.37;;
19609;SDS011;9952;47.122;-1.638;2022-10-30T04:28:48;4.63;;;1.23;;
19609;SDS011;9952;47.122;-1.638;2022-10-30T04:33:29;7.43;;;1.33;;
19609;SDS011;9952;47.122;-1.638;2022-10-30T04:38:11;5.17;;;1.03;;
19609;SDS011;9952;47.122;-1.638;2022-10-30T04:42:53;5.20;;;1.10;;
19609;SDS011;9952;47.122;-1.638;2022-10-30T04:47:35;9.87;;;1.37;;
19609;SDS011;9952;47.122;-1.638;2022-10-30T04:52:15;8.73;;;1.03;;
19609;SDS011;9952;47.122;-1.638;2022-10-30T04:56:56;6.57;;;0.70;;
19609;SDS011;9952;47.122;-1.638;2022-10-30T05:01:37;6.67;;;0.93;;
19609;SDS011;9952;47.122;-1.638;2022-10-30T05:06:22;3.33;;;0.83;;
19609;SDS011;9952;47.122;-1.638;2022-10-30T05:11:04;13.93;;;1.63;;
19609;SDS011;9952;47.122;-1.638;2022-10-30T05:15:45;3.63;;;0.70;;
19609;SDS011;9952;47.122;-1.638;2022-10-30T05:20:25;5.27;;;0.77;;
19609;SDS011;9952;47.122;-1.638;2022-10-30T05:25:06;4.60;;;0.73;;
19609;SDS011;9952;47.122;-1.638;2022-10-30T05:29:48;5.97;;;0.83;;
19609;SDS011;9952;47.122;-1.638;2022-10-30T05:34:28;6.33;;;0.63;;
19609;SDS011;9952;47.122;-1.638;2022-10-30T05:39:09;5.20;;;1.40;;
19609;SDS011;9952;47.122;-1.638;2022-10-30T05:43:50;4.20;;;0.53;;
19609;SDS011;9952;47.122;-1.638;2022-10-30T05:48:31;2.97;;;0.40;;
19609;SDS011;9952;47.122;-1.638;2022-10-30T05:53:12;5.33;;;0.70;;
19609;SDS011;9952;47.122;-1.638;2022-10-30T05:57:59;2.23;;;0.40;;
19609;SDS011;9952;47.122;-1.638;2022-10-30T06:02:41;2.03;;;0.50;;
19609;SDS011;9952;47.122;-1.638;2022-10-30T06:07:22;4.27;;;0.53;;
19609;SDS011;9952;47.122;-1.638;2022-10-30T06:12:03;5.30;;;0.50;;
19609;SDS011;9952;47.122;-1.638;2022-10-30T06:16:44;2.60;;;0.50;;
19609;SDS011;9952;47.122;-1.638;2022-10-30T06:21:25;3.77;;;0.60;;
19609;SDS011;9952;47.122;-1.638;2022-10-30T06:26:06;5.70;;;0.70;;
19609;SDS011;9952;47.122;-1.638;2022-10-30T06:30:49;2.77;;;0.50;;
19609;SDS011;9952;47.122;-1.638;2022-10-30T06:35:29;1.60;;;0.33;;
19609;SDS011;9952;47.122;-1.638;2022-10-30T06:40:11;5.67;;;0.60;;
19609;SDS011;9952;47.122;-1.638;2022-10-30T06:44:51;6.03;;;1.17;;
19609;SDS011;9952;47.122;-1.638;2022-10-30T06:49:33;6.27;;;1.47;;
19609;SDS011;9952;47.122;-1.638;2022-10-30T06:54:14;7.37;;;1.50;;
19609;SDS011;9952;47.122;-1.638;2022-10-30T06:58:54;3.07;;;0.70;;
19609;SDS011;9952;47.122;-1.638;2022-10-30T07:03:35;3.07;;;0.50;;
19609;SDS011;9952;47.122;-1.638;2022-10-30T07:08:16;3.40;;;0.47;;
19609;SDS011;9952;47.122;-1.638;2022-10-30T07:12:57;2.23;;;0.77;;
19609;SDS011;9952;47.122;-1.638;2022-10-30T07:17:38;4.47;;;0.70;;
19609;SDS011;9952;47.122;-1.638;2022-10-30T07:22:18;4.33;;;0.50;;
19609;SDS011;9952;47.122;-1.638;2022-10-30T07:26:59;5.13;;;0.53;;
19609;SDS011;9952;47.122;-1.638;2022-10-30T07:31:40;5.63;;;0.87;;
19609;SDS011;9952;47.122;-1.638;2022-10-30T07:36:22;6.80;;;0.70;;
19609;SDS011;9952;47.122;-1.638;2022-10-30T07:41:03;6.73;;;0.70;;
19609;SDS011;9952;47.122;-1.638;2022-10-30T07:45:44;2.23;;;0.50;;
19609;SDS011;9952;47.122;-1.638;2022-10-30T07:50:25;4.43;;;0.80;;
19609;SDS011;9952;47.122;-1.638;2022-10-30T07:55:06;1.73;;;0.40;;
19609;SDS011;9952;47.122;-1.638;2022-10-30T07:59:47;2.50;;;0.60;;
19609;SDS011;9952;47.122;-1.638;2022-10-30T08:04:28;2.30;;;0.60;;
19609;SDS011;9952;47.122;-1.638;2022-10-30T08:09:09;2.43;;;0.30;;
19609;SDS011;9952;47.122;-1.638;2022-10-30T08:13:50;5.30;;;0.73;;
19609;SDS011;9952;47.122;-1.638;2022-10-30T08:18:31;4.20;;;0.63;;
19609;SDS011;9952;47.122;-1.638;2022-10-30T08:23:11;2.67;;;0.40;;
19609;SDS011;9952;47.122;-1.638;2022-10-30T08:27:53;4.53;;;0.60;;
19609;SDS011;9952;47.122;-1.638;2022-10-30T08:32:39;1.70;;;0.33;;
19609;SDS011;9952;47.122;-1.638;2022-10-30T08:37:20;2.77;;;0.40;;
19609;SDS011;9952;47.122;-1.638;2022-10-30T08:42:01;3.93;;;0.50;;
19609;SDS011;9952;47.122;-1.638;2022-10-30T08:46:41;2.43;;;0.40;;
19609;SDS011;9952;47.122;-1.638;2022-10-30T08:51:22;10.57;;;1.27;;
19609;SDS011;9952;47.122;-1.638;2022-10-30T08:56:03;3.50;;;0.60;;
19609;SDS011;9952;47.122;-1.638;2022-10-30T09:00:44;2.37;;;0.33;;
19609;SDS011;9952;47.122;-1.638;2022-10-30T09:05:25;1.20;;;0.50;;
19609;SDS011;9952;47.122;-1.638;2022-10-30T09:10:06;2.27;;;0.50;;
19609;SDS011;9952;47.122;-1.638;2022-10-30T09:14:47;2.57;;;0.40;;
19609;SDS011;9952;47.122;-1.638;2022-10-30T09:19:28;1.53;;;0.30;;
19609;SDS011;9952;47.122;-1.638;2022-10-30T09:24:09;2.47;;;0.40;;
19609;SDS011;9952;47.122;-1.638;2022-10-30T09:28:50;1.80;;;0.50;;
19609;SDS011;9952;47.122;-1.638;2022-10-30T09:33:30;7.20;;;0.70;;
19609;SDS011;9952;47.122;-1.638;2022-10-30T09:38:11;2.00;;;0.20;;
19609;SDS011;9952;47.122;-1.638;2022-10-30T09:42:52;1.83;;;0.37;;
19609;SDS011;9952;47.122;-1.638;2022-10-30T09:57:29;1.27;;;0.50;;
19609;SDS011;9952;47.122;-1.638;2022-10-30T10:07:19;3.80;;;0.50;;
19609;SDS011;9952;47.122;-1.638;2022-10-30T10:12:04;2.50;;;0.70;;
19609;SDS011;9952;47.122;-1.638;2022-10-30T10:16:50;2.43;;;0.40;;
19609;SDS011;9952;47.122;-1.638;2022-10-30T10:21:34;3.80;;;0.70;;
19609;SDS011;9952;47.122;-1.638;2022-10-30T10:31:35;1.77;;;0.60;;
19609;SDS011;9952;47.122;-1.638;2022-10-30T10:36:27;1.83;;;0.43;;
19609;SDS011;9952;47.122;-1.638;2022-10-30T10:51:13;4.67;;;0.60;;
19609;SDS011;9952;47.122;-1.638;2022-10-30T10:55:57;1.93;;;0.50;;
19609;SDS011;9952;47.122;-1.638;2022-10-30T11:00:40;2.97;;;0.50;;
19609;SDS011;9952;47.122;-1.638;2022-10-30T11:05:35;1.47;;;0.60;;
19609;SDS011;9952;47.122;-1.638;2022-10-30T11:10:35;4.13;;;0.60;;
19609;SDS011;9952;47.122;-1.638;2022-10-30T11:15:26;3.43;;;0.67;;
19609;SDS011;9952;47.122;-1.638;2022-10-30T11:20:18;3.43;;;0.60;;
19609;SDS011;9952;47.122;-1.638;2022-10-30T11:25:32;3.70;;;0.73;;
19609;SDS011;9952;47.122;-1.638;2022-10-30T11:30:17;0.97;;;0.50;;
19609;SDS011;9952;47.122;-1.638;2022-10-30T11:40:00;4.00;;;0.60;;
19609;SDS011;9952;47.122;-1.638;2022-10-30T11:44:44;1.97;;;0.90;;
19609;SDS011;9952;47.122;-1.638;2022-10-30T11:49:36;1.83;;;0.60;;
19609;SDS011;9952;47.122;-1.638;2022-10-30T11:54:33;2.43;;;0.60;;
19609;SDS011;9952;47.122;-1.638;2022-10-30T11:59:17;4.33;;;0.83;;
19609;SDS011;9952;47.122;-1.638;2022-10-30T12:14:25;1.37;;;0.40;;
19609;SDS011;9952;47.122;-1.638;2022-10-30T12:19:06;3.40;;;0.50;;
19609;SDS011;9952;47.122;-1.638;2022-10-30T12:23:59;4.93;;;0.50;;
19609;SDS011;9952;47.122;-1.638;2022-10-30T12:28:50;2.97;;;0.40;;
19609;SDS011;9952;47.122;-1.638;2022-10-30T12:33:49;2.47;;;0.83;;
19609;SDS011;9952;47.122;-1.638;2022-10-30T12:38:53;2.57;;;1.23;;
19609;SDS011;9952;47.122;-1.638;2022-10-30T12:44:03;1.73;;;0.60;;
19609;SDS011;9952;47.122;-1.638;2022-10-30T12:49:09;1.13;;;0.33;;
19609;SDS011;9952;47.122;-1.638;2022-10-30T12:54:13;1.80;;;0.40;;
19609;SDS011;9952;47.122;-1.638;2022-10-30T13:03:58;3.50;;;0.87;;
19609;SDS011;9952;47.122;-1.638;2022-10-30T13:14:00;1.43;;;0.50;;
19609;SDS011;9952;47.122;-1.638;2022-10-30T13:18:45;2.40;;;0.57;;
19609;SDS011;9952;47.122;-1.638;2022-10-30T13:23:45;4.37;;;0.60;;
19609;SDS011;9952;47.122;-1.638;2022-10-30T13:28:42;1.67;;;0.40;;
19609;SDS011;9952;47.122;-1.638;2022-10-30T13:33:36;3.30;;;0.80;;
19609;SDS011;9952;47.122;-1.638;2022-10-30T13:38:33;3.87;;;0.70;;
19609;SDS011;9952;47.122;-1.638;2022-10-30T13:53:38;2.57;;;0.50;;
19609;SDS011;9952;47.122;-1.638;2022-10-30T13:58:23;7.87;;;0.63;;
19609;SDS011;9952;47.122;-1.638;2022-10-30T14:08:42;2.73;;;0.70;;
19609;SDS011;9952;47.122;-1.638;2022-10-30T14:13:47;2.97;;;1.03;;
19609;SDS011;9952;47.122;-1.638;2022-10-30T14:18:45;1.77;;;0.47;;
19609;SDS011;9952;47.122;-1.638;2022-10-30T14:23:42;7.33;;;0.93;;
19609;SDS011;9952;47.122;-1.638;2022-10-30T14:28:23;3.97;;;0.90;;
19609;SDS011;9952;47.122;-1.638;2022-10-30T14:33:08;4.23;;;0.50;;
19609;SDS011;9952;47.122;-1.638;2022-10-30T14:38:22;5.30;;;0.80;;
19609;SDS011;9952;47.122;-1.638;2022-10-30T14:43:17;6.77;;;0.90;;
19609;SDS011;9952;47.122;-1.638;2022-10-30T14:48:18;4.03;;;0.93;;
19609;SDS011;9952;47.122;-1.638;2022-10-30T15:03:01;3.27;;;0.60;;
19609;SDS011;9952;47.122;-1.638;2022-10-30T15:07:56;4.63;;;0.63;;
19609;SDS011;9952;47.122;-1.638;2022-10-30T15:17:48;4.17;;;0.90;;
19609;SDS011;9952;47.122;-1.638;2022-10-30T15:22:32;6.70;;;1.03;;
19609;SDS011;9952;47.122;-1.638;2022-10-30T15:27:17;3.67;;;0.87;;
19609;SDS011;9952;47.122;-1.638;2022-10-30T15:32:02;7.70;;;0.97;;
19609;SDS011;9952;47.122;-1.638;2022-10-30T15:36:53;5.30;;;0.93;;
19609;SDS011;9952;47.122;-1.638;2022-10-30T15:41:39;7.03;;;1.33;;
19609;SDS011;9952;47.122;-1.638;2022-10-30T15:46:38;3.37;;;1.00;;
19609;SDS011;9952;47.122;-1.638;2022-10-30T15:51:22;7.70;;;1.03;;
19609;SDS011;9952;47.122;-1.638;2022-10-30T15:56:04;5.30;;;1.33;;
19609;SDS011;9952;47.122;-1.638;2022-10-30T16:00:56;13.80;;;1.20;;
19609;SDS011;9952;47.122;-1.638;2022-10-30T16:05:42;8.17;;;2.37;;
19609;SDS011;9952;47.122;-1.638;2022-10-30T16:10:27;11.77;;;2.23;;
19609;SDS011;9952;47.122;-1.638;2022-10-30T16:15:54;4.87;;;0.70;;
19609;SDS011;9952;47.122;-1.638;2022-10-30T16:20:18;5.33;;;0.87;;
19609;SDS011;9952;47.122;-1.638;2022-10-30T16:24:59;8.20;;;0.80;;
19609;SDS011;9952;47.122;-1.638;2022-10-30T16:29:41;3.67;;;0.90;;
19609;SDS011;9952;47.122;-1.638;2022-10-30T16:34:32;5.60;;;1.10;;
19609;SDS011;9952;47.122;-1.638;2022-10-30T16:39:15;5.30;;;0.80;;
19609;SDS011;9952;47.122;-1.638;2022-10-30T16:44:12;5.57;;;0.83;;
19609;SDS011;9952;47.122;-1.638;2022-10-30T16:49:05;9.00;;;1.43;;
19609;SDS011;9952;47.122;-1.638;2022-10-30T16:53:52;4.10;;;0.80;;
19609;SDS011;9952;47.122;-1.638;2022-10-30T16:58:35;2.23;;;0.80;;
19609;SDS011;9952;47.122;-1.638;2022-10-30T17:03:16;4.40;;;0.80;;
19609;SDS011;9952;47.122;-1.638;2022-10-30T17:18:14;6.57;;;1.00;;
19609;SDS011;9952;47.122;-1.638;2022-10-30T17:28:01;5.10;;;1.13;;
19609;SDS011;9952;47.122;-1.638;2022-10-30T17:32:43;8.23;;;1.40;;
19609;SDS011;9952;47.122;-1.638;2022-10-30T17:37:24;5.57;;;1.10;;
19609;SDS011;9952;47.122;-1.638;2022-10-30T17:42:05;4.07;;;1.07;;
19609;SDS011;9952;47.122;-1.638;2022-10-30T17:46:46;4.00;;;0.83;;
19609;SDS011;9952;47.122;-1.638;2022-10-30T17:51:27;4.80;;;0.80;;
19609;SDS011;9952;47.122;-1.638;2022-10-30T18:00:52;8.03;;;1.10;;
19609;SDS011;9952;47.122;-1.638;2022-10-30T18:05:33;7.83;;;1.10;;
19609;SDS011;9952;47.122;-1.638;2022-10-30T18:10:15;6.13;;;1.37;;
19609;SDS011;9952;47.122;-1.638;2022-10-30T18:14:56;4.50;;;0.87;;
19609;SDS011;9952;47.122;-1.638;2022-10-30T18:19:37;7.47;;;1.17;;
19609;SDS011;9952;47.122;-1.638;2022-10-30T18:24:18;8.03;;;1.10;;
19609;SDS011;9952;47.122;-1.638;2022-10-30T18:28:59;4.07;;;1.10;;
19609;SDS011;9952;47.122;-1.638;2022-10-30T18:33:40;2.80;;;0.87;;
19609;SDS011;9952;47.122;-1.638;2022-10-30T18:38:22;11.07;;;5.03;;
19609;SDS011;9952;47.122;-1.638;2022-10-30T18:43:03;10.87;;;2.80;;
19609;SDS011;9952;47.122;-1.638;2022-10-30T18:47:44;3.03;;;1.10;;
19609;SDS011;9952;47.122;-1.638;2022-10-30T18:52:25;2.30;;;0.73;;
19609;SDS011;9952;47.122;-1.638;2022-10-30T18:57:05;3.80;;;0.80;;
19609;SDS011;9952;47.122;-1.638;2022-10-30T19:01:46;8.57;;;3.87;;
19609;SDS011;9952;47.122;-1.638;2022-10-30T19:06:27;19.90;;;11.67;;
19609;SDS011;9952;47.122;-1.638;2022-10-30T19:11:12;37.20;;;21.77;;
19609;SDS011;9952;47.122;-1.638;2022-10-30T19:15:54;17.10;;;10.17;;
19609;SDS011;9952;47.122;-1.638;2022-10-30T19:20:36;12.13;;;5.03;;
19609;SDS011;9952;47.122;-1.638;2022-10-30T19:30:02;4.50;;;1.50;;
19609;SDS011;9952;47.122;-1.638;2022-10-30T19:34:43;3.33;;;1.80;;
19609;SDS011;9952;47.122;-1.638;2022-10-30T19:39:24;3.47;;;1.23;;
19609;SDS011;9952;47.122;-1.638;2022-10-30T19:44:07;3.80;;;1.37;;
19609;SDS011;9952;47.122;-1.638;2022-10-30T19:48:48;4.03;;;1.60;;
19609;SDS011;9952;47.122;-1.638;2022-10-30T19:53:29;5.43;;;1.80;;
19609;SDS011;9952;47.122;-1.638;2022-10-30T19:58:11;4.60;;;1.23;;
19609;SDS011;9952;47.122;-1.638;2022-10-30T20:02:54;6.60;;;1.67;;
19609;SDS011;9952;47.122;-1.638;2022-10-30T20:07:38;4.33;;;1.53;;
19609;SDS011;9952;47.122;-1.638;2022-10-30T20:12:19;7.23;;;2.03;;
19609;SDS011;9952;47.122;-1.638;2022-10-30T20:17:00;9.53;;;2.10;;
19609;SDS011;9952;47.122;-1.638;2022-10-30T20:21:41;4.73;;;2.40;;
19609;SDS011;9952;47.122;-1.638;2022-10-30T20:26:22;4.93;;;1.67;;
19609;SDS011;9952;47.122;-1.638;2022-10-30T20:31:07;4.60;;;2.40;;
19609;SDS011;9952;47.122;-1.638;2022-10-30T20:35:51;6.23;;;2.80;;
19609;SDS011;9952;47.122;-1.638;2022-10-30T20:40:36;5.77;;;2.57;;
19609;SDS011;9952;47.122;-1.638;2022-10-30T20:45:18;6.43;;;2.40;;
19609;SDS011;9952;47.122;-1.638;2022-10-30T20:50:01;2.27;;;1.60;;
19609;SDS011;9952;47.122;-1.638;2022-10-30T20:54:42;4.83;;;1.60;;
19609;SDS011;9952;47.122;-1.638;2022-10-30T20:59:23;4.73;;;1.30;;
19609;SDS011;9952;47.122;-1.638;2022-10-30T21:04:04;2.63;;;1.47;;
19609;SDS011;9952;47.122;-1.638;2022-10-30T21:08:44;3.33;;;2.00;;
19609;SDS011;9952;47.122;-1.638;2022-10-30T21:13:26;5.20;;;1.60;;
19609;SDS011;9952;47.122;-1.638;2022-10-30T21:18:07;5.43;;;2.30;;
19609;SDS011;9952;47.122;-1.638;2022-10-30T21:22:49;3.57;;;1.53;;
19609;SDS011;9952;47.122;-1.638;2022-10-30T21:27:30;4.23;;;1.70;;
19609;SDS011;9952;47.122;-1.638;2022-10-30T21:32:14;3.33;;;1.10;;
19609;SDS011;9952;47.122;-1.638;2022-10-30T21:36:55;4.00;;;1.67;;
19609;SDS011;9952;47.122;-1.638;2022-10-30T21:41:36;5.90;;;2.43;;
19609;SDS011;9952;47.122;-1.638;2022-10-30T21:46:16;4.43;;;1.70;;
19609;SDS011;9952;47.122;-1.638;2022-10-30T21:51:08;4.43;;;1.47;;
19609;SDS011;9952;47.122;-1.638;2022-10-30T21:55:51;6.20;;;2.53;;
19609;SDS011;9952;47.122;-1.638;2022-10-30T22:00:31;4.97;;;2.60;;
19609;SDS011;9952;47.122;-1.638;2022-10-30T22:05:12;5.93;;;2.83;;
19609;SDS011;9952;47.122;-1.638;2022-10-30T22:09:53;9.93;;;2.80;;
19609;SDS011;9952;47.122;-1.638;2022-10-30T22:14:34;8.30;;;3.43;;
19609;SDS011;9952;47.122;-1.638;2022-10-30T22:19:14;6.50;;;3.30;;
19609;SDS011;9952;47.122;-1.638;2022-10-30T22:23:57;6.43;;;3.37;;
19609;SDS011;9952;47.122;-1.638;2022-10-30T22:28:39;9.70;;;4.60;;
19609;SDS011;9952;47.122;-1.638;2022-10-30T22:33:20;10.43;;;3.80;;
19609;SDS011;9952;47.122;-1.638;2022-10-30T22:38:01;7.07;;;2.70;;
19609;SDS011;9952;47.122;-1.638;2022-10-30T22:42:41;7.90;;;2.80;;
19609;SDS011;9952;47.122;-1.638;2022-10-30T22:47:22;7.90;;;2.70;;
19609;SDS011;9952;47.122;-1.638;2022-10-30T22:52:03;4.07;;;2.53;;
19609;SDS011;9952;47.122;-1.638;2022-10-30T22:56:44;4.47;;;2.07;;
19609;SDS011;9952;47.122;-1.638;2022-10-30T23:01:25;7.83;;;2.50;;
19609;SDS011;9952;47.122;-1.638;2022-10-30T23:06:08;8.70;;;2.80;;
19609;SDS011;9952;47.122;-1.638;2022-10-30T23:10:52;4.67;;;2.23;;
19609;SDS011;9952;47.122;-1.638;2022-10-30T23:15:33;6.07;;;2.57;;
19609;SDS011;9952;47.122;-1.638;2022-10-30T23:20:17;9.23;;;2.80;;
19609;SDS011;9952;47.122;-1.638;2022-10-30T23:24:58;5.47;;;2.20;;
19609;SDS011;9952;47.122;-1.638;2022-10-30T23:29:39;6.80;;;3.87;;
19609;SDS011;9952;47.122;-1.638;2022-10-30T23:34:20;13.47;;;8.77;;
19609;SDS011;9952;47.122;-1.638;2022-10-30T23:39:01;6.87;;;5.40;;
19609;SDS011;9952;47.122;-1.638;2022-10-30T23:43:44;12.13;;;8.03;;
19609;SDS011;9952;47.122;-1.638;2022-10-30T23:48:24;23.33;;;14.23;;
19609;SDS011;9952;47.122;-1.638;2022-10-30T23:53:05;16.23;;;9.10;;
19609;SDS011;9952;47.122;-1.638;2022-10-30T23:57:46;7.10;;;4.17;;
